Time;durP1;ratioP1;P1;durP2;ratioP2;P2;SDS_P1;SDS_P2;PMS_P1;PMS_P2;Temp;Humidity;BMP_temperature;BMP_pressure;BME280_temperature;BME280_humidity;BME280_pressure;Samples;Min_cycle;Max_cycle;Signal;HPM_P1;HPM_P2
2021/08/02 00:01:37;;;;;;;28.63;26.93;;;;;;;;;;5072152;28;20453;-68
2021/08/02 00:04:05;;;;;;;30.30;28.40;;;;;;;;;;5072461;28;20447;-68
2021/08/02 00:06:37;;;;;;;30.20;28.50;;;;;;;;;;5072613;28;20446;-68
2021/08/02 00:09:05;;;;;;;30.33;28.63;;;;;;;;;;5072941;28;20451;-68
2021/08/02 00:11:34;;;;;;;29.03;27.40;;;;;;;;;;5072252;28;20828;-68
2021/08/02 00:14:03;;;;;;;30.50;28.47;;;;;;;;;;5074666;28;20485;-69
2021/08/02 00:16:30;;;;;;;30.17;28.33;;;;;;;;;;5071912;28;20447;-68
2021/08/02 00:18:57;;;;;;;30.77;28.87;;;;;;;;;;5082687;28;20870;-69
2021/08/02 00:21:24;;;;;;;31.40;29.20;;;;;;;;;;5092201;28;21004;-69
2021/08/02 00:23:52;;;;;;;29.30;27.40;;;;;;;;;;5090547;28;20460;-69
2021/08/02 00:26:19;;;;;;;29.73;28.03;;;;;;;;;;5092665;28;20537;-69
2021/08/02 00:28:46;;;;;;;29.33;27.73;;;;;;;;;;5091662;28;20460;-70
2021/08/02 00:31:16;;;;;;;29.03;27.23;;;;;;;;;;5083985;28;20839;-70
2021/08/02 00:33:43;;;;;;;28.87;27.13;;;;;;;;;;5071315;28;20490;-68
2021/08/02 00:36:14;;;;;;;28.57;26.67;;;;;;;;;;5078136;28;20449;-68
2021/08/02 00:38:44;;;;;;;27.70;26.00;;;;;;;;;;5092481;28;20430;-68
2021/08/02 00:41:29;;;;;;;28.10;26.17;;;;;;;;;;5095285;28;20452;-68
2021/08/02 00:44:11;;;;;;;27.70;26.10;;;;;;;;;;5096003;28;20449;-68
2021/08/02 00:46:41;;;;;;;28.90;26.80;;;;;;;;;;5096721;28;20452;-67
2021/08/02 00:49:09;;;;;;;27.77;26.17;;;;;;;;;;5096763;28;20460;-68
2021/08/02 00:51:38;;;;;;;29.07;27.20;;;;;;;;;;5081558;28;20828;-69
2021/08/02 00:54:06;;;;;;;29.80;28.00;;;;;;;;;;5075960;28;20581;-68
2021/08/02 00:56:34;;;;;;;29.33;27.43;;;;;;;;;;5086281;28;20818;-68
2021/08/02 00:59:03;;;;;;;28.87;26.67;;;;;;;;;;5092253;28;20541;-68
2021/08/02 01:01:31;;;;;;;28.20;26.60;;;;;;;;;;5075700;28;20453;-69
2021/08/02 01:04:00;;;;;;;28.53;26.93;;;;;;;;;;5088208;28;20452;-69
2021/08/02 01:06:30;;;;;;;28.30;26.40;;;;;;;;;;5089778;28;20965;-69
2021/08/02 01:08:57;;;;;;;27.50;26.00;;;;;;;;;;5088550;28;20518;-69
2021/08/02 01:11:24;;;;;;;27.60;26.10;;;;;;;;;;5095497;28;20455;-69
2021/08/02 01:13:52;;;;;;;27.93;26.23;;;;;;;;;;5085325;28;21031;-69
2021/08/02 01:16:19;;;;;;;28.60;27.00;;;;;;;;;;5077005;28;20454;-69
2021/08/02 01:18:47;;;;;;;28.23;26.63;;;;;;;;;;5084075;28;20453;-69
2021/08/02 01:21:15;;;;;;;25.90;24.50;;;;;;;;;;5096957;28;20448;-69
2021/08/02 01:23:44;;;;;;;26.90;25.20;;;;;;;;;;5086531;28;20478;-68
2021/08/02 01:26:20;;;;;;;26.17;24.77;;;;;;;;;;5071597;28;20449;-70
2021/08/02 01:29:06;;;;;;;26.87;25.27;;;;;;;;;;5083357;28;20455;-70
2021/08/02 01:31:33;;;;;;;25.20;23.80;;;;;;;;;;5086052;28;20963;-70
2021/08/02 01:34:00;;;;;;;26.63;25.10;;;;;;;;;;5084479;28;20488;-69
2021/08/02 01:36:27;;;;;;;25.63;24.33;;;;;;;;;;5095228;28;20937;-70
2021/08/02 01:38:56;;;;;;;26.20;24.80;;;;;;;;;;5094125;28;20489;-70
2021/08/02 01:41:24;;;;;;;25.70;24.30;;;;;;;;;;5074336;28;20457;-70
2021/08/02 01:43:51;;;;;;;25.30;23.80;;;;;;;;;;5075339;28;20455;-70
2021/08/02 01:46:23;;;;;;;25.70;24.40;;;;;;;;;;5075096;28;20835;-68
2021/08/02 01:48:57;;;;;;;26.30;24.80;;;;;;;;;;5074149;28;20443;-70
2021/08/02 01:51:26;;;;;;;26.20;24.90;;;;;;;;;;5074147;28;20961;-68
2021/08/02 01:53:57;;;;;;;26.07;24.67;;;;;;;;;;5082006;28;20997;-70
2021/08/02 01:56:26;;;;;;;26.97;25.43;;;;;;;;;;5081683;28;20457;-70
2021/08/02 01:58:55;;;;;;;26.20;24.80;;;;;;;;;;5054650;28;20448;-70
2021/08/02 02:01:24;;;;;;;26.40;24.80;;;;;;;;;;5076156;28;20451;-70
2021/08/02 02:03:51;;;;;;;26.77;25.27;;;;;;;;;;5076211;28;20460;-69
2021/08/02 02:06:19;;;;;;;27.63;26.13;;;;;;;;;;5083237;28;20447;-70
2021/08/02 02:08:48;;;;;;;27.10;25.70;;;;;;;;;;5084538;28;20454;-70
2021/08/02 02:11:17;;;;;;;25.50;24.20;;;;;;;;;;5079410;28;20457;-69
2021/08/02 02:13:46;;;;;;;26.10;24.70;;;;;;;;;;5074150;28;20478;-70
2021/08/02 02:16:15;;;;;;;26.33;25.03;;;;;;;;;;5074042;28;20817;-70
2021/08/02 02:18:52;;;;;;;26.57;25.00;;;;;;;;;;5075282;28;20457;-70
2021/08/02 02:21:20;;;;;;;26.70;25.17;;;;;;;;;;5075977;28;20450;-70
2021/08/02 02:23:47;;;;;;;26.83;25.43;;;;;;;;;;5075443;28;20990;-70
2021/08/02 02:26:15;;;;;;;27.83;25.50;;;;;;;;;;5074526;28;20451;-71
2021/08/02 02:28:44;;;;;;;28.43;26.53;;;;;;;;;;5088220;28;20454;-70
2021/08/02 02:31:12;;;;;;;26.97;25.43;;;;;;;;;;5093910;28;20446;-71
2021/08/02 02:33:39;;;;;;;27.57;25.30;;;;;;;;;;5084035;28;20478;-71
2021/08/02 02:36:06;;;;;;;26.30;24.30;;;;;;;;;;5074016;28;20458;-72
2021/08/02 02:38:35;;;;;;;27.23;25.17;;;;;;;;;;5074069;28;20451;-69
2021/08/02 02:41:02;;;;;;;26.77;24.80;;;;;;;;;;5073811;28;20461;-69
2021/08/02 02:43:30;;;;;;;26.70;25.20;;;;;;;;;;5073264;28;20840;-69
2021/08/02 02:45:59;;;;;;;27.10;25.20;;;;;;;;;;5073719;28;20462;-70
2021/08/02 02:48:27;;;;;;;26.57;24.90;;;;;;;;;;5082894;28;20461;-68
2021/08/02 02:50:54;;;;;;;26.13;24.53;;;;;;;;;;5080755;28;20447;-69
2021/08/02 02:53:22;;;;;;;26.37;24.73;;;;;;;;;;5073357;28;20477;-68
2021/08/02 02:55:49;;;;;;;26.10;24.70;;;;;;;;;;5074036;28;20443;-68
2021/08/02 02:58:16;;;;;;;25.90;24.50;;;;;;;;;;5079502;28;20820;-69
2021/08/02 03:00:44;;;;;;;26.00;24.60;;;;;;;;;;5073240;28;20817;-68
2021/08/02 03:03:16;;;;;;;25.93;24.10;;;;;;;;;;5079165;28;20478;-69
2021/08/02 03:05:44;;;;;;;24.33;23.00;;;;;;;;;;5093285;28;20440;-68
2021/08/02 03:08:11;;;;;;;27.60;25.60;;;;;;;;;;5067078;28;20453;-70
2021/08/02 03:10:39;;;;;;;26.77;25.23;;;;;;;;;;5073075;28;20819;-69
2021/08/02 03:13:06;;;;;;;24.90;23.50;;;;;;;;;;5076334;28;20563;-68
2021/08/02 03:15:33;;;;;;;25.50;23.90;;;;;;;;;;5093661;28;20485;-69
2021/08/02 03:18:00;;;;;;;27.13;25.40;;;;;;;;;;5091139;28;20533;-69
2021/08/02 03:20:28;;;;;;;26.40;24.77;;;;;;;;;;5073781;28;20450;-68
2021/08/02 03:23:00;;;;;;;25.67;24.17;;;;;;;;;;5074683;28;20483;-68
2021/08/02 03:25:29;;;;;;;42.40;39.97;;;;;;;;;;5074114;28;20443;-67
2021/08/02 03:27:57;;;;;;;107.27;102.57;;;;;;;;;;5073386;28;20443;-66
2021/08/02 03:30:25;;;;;;;75.93;71.53;;;;;;;;;;5073933;28;20496;-69
2021/08/02 03:32:52;;;;;;;69.87;65.20;;;;;;;;;;5074381;28;20477;-65
2021/08/02 03:35:20;;;;;;;74.10;69.30;;;;;;;;;;5096087;28;20541;-67
2021/08/02 03:37:50;;;;;;;82.97;77.73;;;;;;;;;;5093804;28;20519;-65
2021/08/02 03:40:18;;;;;;;85.73;80.20;;;;;;;;;;5092475;28;20450;-68
2021/08/02 03:42:46;;;;;;;84.07;78.63;;;;;;;;;;5073652;28;20475;-65
2021/08/02 03:45:15;;;;;;;91.70;86.00;;;;;;;;;;5090994;28;20446;-69
2021/08/02 03:47:43;;;;;;;105.70;99.40;;;;;;;;;;5092681;28;20823;-67
2021/08/02 03:50:10;;;;;;;98.83;92.63;;;;;;;;;;5091675;28;20519;-64
2021/08/02 03:52:38;;;;;;;100.13;93.80;;;;;;;;;;5092948;28;20470;-67
2021/08/02 03:55:07;;;;;;;110.93;104.20;;;;;;;;;;5091702;28;20478;-67
2021/08/02 03:57:34;;;;;;;111.40;104.80;;;;;;;;;;5091933;28;20450;-67
2021/08/02 04:00:02;;;;;;;112.07;105.27;;;;;;;;;;5076433;28;20946;-68
2021/08/02 04:02:29;;;;;;;110.13;103.43;;;;;;;;;;5072279;28;20513;-67
2021/08/02 04:04:56;;;;;;;121.87;114.67;;;;;;;;;;5075468;28;20447;-67
2021/08/02 04:07:24;;;;;;;106.93;100.10;;;;;;;;;;5072443;28;20500;-66
2021/08/02 04:09:51;;;;;;;122.57;115.33;;;;;;;;;;5091758;28;20446;-68
2021/08/02 04:12:19;;;;;;;114.83;107.70;;;;;;;;;;5092263;28;20472;-68
2021/08/02 04:14:46;;;;;;;118.97;111.57;;;;;;;;;;5073014;28;21016;-69
2021/08/02 04:17:13;;;;;;;115.63;108.03;;;;;;;;;;5072398;28;20454;-67
2021/08/02 04:19:41;;;;;;;121.60;113.90;;;;;;;;;;5072533;28;20546;-66
2021/08/02 04:22:08;;;;;;;124.77;117.27;;;;;;;;;;5072106;28;20481;-69
2021/08/02 04:24:35;;;;;;;127.20;119.30;;;;;;;;;;5072317;28;20454;-68
2021/08/02 04:27:02;;;;;;;119.83;111.97;;;;;;;;;;5071773;28;20820;-67
2021/08/02 04:29:30;;;;;;;122.37;114.47;;;;;;;;;;5072361;28;20446;-66
2021/08/02 04:31:58;;;;;;;124.73;116.43;;;;;;;;;;5074241;28;20989;-69
2021/08/02 04:34:25;;;;;;;131.73;123.60;;;;;;;;;;5072772;28;20491;-66
2021/08/02 04:36:52;;;;;;;127.93;119.23;;;;;;;;;;5072222;28;20819;-66
2021/08/02 04:39:19;;;;;;;130.93;122.30;;;;;;;;;;5071579;28;20450;-67
2021/08/02 04:41:46;;;;;;;130.67;122.13;;;;;;;;;;5071617;28;20558;-65
2021/08/02 04:44:13;;;;;;;141.97;133.13;;;;;;;;;;5072173;28;20447;-64
2021/08/02 04:46:42;;;;;;;132.50;123.90;;;;;;;;;;5071874;28;20446;-68
2021/08/02 04:49:09;;;;;;;135.07;126.47;;;;;;;;;;5071754;28;20949;-67
2021/08/02 04:51:36;;;;;;;132.30;123.83;;;;;;;;;;5068429;28;20451;-66
2021/08/02 04:54:03;;;;;;;134.90;126.20;;;;;;;;;;5071571;28;20469;-67
2021/08/02 04:56:30;;;;;;;147.00;137.50;;;;;;;;;;5071881;28;20552;-68
2021/08/02 04:58:57;;;;;;;140.67;131.63;;;;;;;;;;5076713;28;20446;-66
2021/08/02 05:01:24;;;;;;;134.23;125.30;;;;;;;;;;5086408;28;20815;-65
2021/08/02 05:03:53;;;;;;;142.60;132.53;;;;;;;;;;5071781;28;20450;-65
2021/08/02 05:06:20;;;;;;;139.57;130.20;;;;;;;;;;5070972;28;20471;-65
2021/08/02 05:08:47;;;;;;;138.23;129.03;;;;;;;;;;5081220;28;20450;-68
2021/08/02 05:11:14;;;;;;;138.50;129.57;;;;;;;;;;5091517;28;20940;-68
2021/08/02 05:13:43;;;;;;;145.90;136.67;;;;;;;;;;5082012;28;20475;-66
2021/08/02 05:16:10;;;;;;;137.80;128.40;;;;;;;;;;5071316;28;20717;-66
2021/08/02 05:18:37;;;;;;;168.27;157.37;;;;;;;;;;5076233;28;20457;-66
2021/08/02 05:21:06;;;;;;;247.77;231.13;;;;;;;;;;5063602;28;20451;-67
2021/08/02 05:23:33;;;;;;;151.13;142.20;;;;;;;;;;5077568;28;20867;-67
2021/08/02 05:26:00;;;;;;;143.37;134.27;;;;;;;;;;5085197;28;20443;-67
2021/08/02 05:28:27;;;;;;;142.43;132.90;;;;;;;;;;5075022;28;20905;-68
2021/08/02 05:30:54;;;;;;;148.40;139.40;;;;;;;;;;5075114;28;20443;-67
2021/08/02 05:33:21;;;;;;;147.37;138.20;;;;;;;;;;5078900;28;21027;-68
2021/08/02 05:35:48;;;;;;;149.43;139.73;;;;;;;;;;5095433;28;20486;-66
2021/08/02 05:38:17;;;;;;;147.83;137.60;;;;;;;;;;5086342;28;20826;-68
2021/08/02 05:40:44;;;;;;;153.93;144.03;;;;;;;;;;5075049;28;20453;-67
2021/08/02 05:43:11;;;;;;;164.80;154.13;;;;;;;;;;5075394;28;20470;-65
2021/08/02 05:45:38;;;;;;;164.37;153.10;;;;;;;;;;5074950;28;20453;-65
2021/08/02 05:48:05;;;;;;;163.40;152.70;;;;;;;;;;5075918;28;20949;-65
2021/08/02 05:50:33;;;;;;;168.47;157.33;;;;;;;;;;5074656;28;20454;-65
2021/08/02 05:53:00;;;;;;;165.77;155.07;;;;;;;;;;5086917;28;20470;-66
2021/08/02 05:55:28;;;;;;;188.87;177.77;;;;;;;;;;5074731;28;20475;-66
2021/08/02 05:57:55;;;;;;;167.80;156.93;;;;;;;;;;5075974;28;20451;-65
2021/08/02 06:00:23;;;;;;;169.40;158.47;;;;;;;;;;5074685;28;20447;-66
2021/08/02 06:02:50;;;;;;;204.07;190.43;;;;;;;;;;5078241;28;20916;-66
2021/08/02 06:05:18;;;;;;;239.00;223.33;;;;;;;;;;5095547;28;20452;-66
2021/08/02 06:07:45;;;;;;;299.70;280.93;;;;;;;;;;5069615;28;20550;-66
2021/08/02 06:10:12;;;;;;;317.73;298.53;;;;;;;;;;5054733;28;20444;-67
2021/08/02 06:12:41;;;;;;;374.97;355.87;;;;;;;;;;5055182;28;20549;-67
2021/08/02 06:15:10;;;;;;;374.70;355.97;;;;;;;;;;5072160;28;20858;-67
2021/08/02 06:17:37;;;;;;;342.40;325.10;;;;;;;;;;5082684;28;20949;-66
2021/08/02 06:20:05;;;;;;;309.77;294.00;;;;;;;;;;5094735;28;20441;-68
2021/08/02 06:22:32;;;;;;;260.20;246.20;;;;;;;;;;5088504;28;20478;-68
2021/08/02 06:24:59;;;;;;;253.87;240.87;;;;;;;;;;5074449;28;20450;-69
2021/08/02 06:27:30;;;;;;;244.80;232.80;;;;;;;;;;5081894;28;20454;-66
2021/08/02 06:29:58;;;;;;;224.87;214.20;;;;;;;;;;5095601;28;20507;-67
2021/08/02 06:32:26;;;;;;;208.03;198.70;;;;;;;;;;5093394;28;20540;-67
2021/08/02 06:34:53;;;;;;;187.80;179.23;;;;;;;;;;5095089;28;20485;-70
2021/08/02 06:37:22;;;;;;;150.20;143.10;;;;;;;;;;5087161;28;20453;-67
2021/08/02 06:39:49;;;;;;;161.03;153.60;;;;;;;;;;5074674;28;20518;-66
2021/08/02 06:42:16;;;;;;;134.57;128.27;;;;;;;;;;5074620;28;20477;-67
2021/08/02 06:44:43;;;;;;;125.03;119.10;;;;;;;;;;5075023;28;20473;-67
2021/08/02 06:47:12;;;;;;;103.87;98.97;;;;;;;;;;5079073;28;20450;-66
2021/08/02 06:49:39;;;;;;;94.97;90.07;;;;;;;;;;5095468;28;20446;-68
2021/08/02 06:52:06;;;;;;;77.50;73.37;;;;;;;;;;5091769;28;20475;-66
2021/08/02 06:54:33;;;;;;;67.90;64.20;;;;;;;;;;5074601;28;20529;-69
2021/08/02 06:57:00;;;;;;;60.30;57.00;;;;;;;;;;5074517;28;20951;-68
2021/08/02 06:59:28;;;;;;;58.10;54.90;;;;;;;;;;5074820;28;20463;-67
2021/08/02 07:01:55;;;;;;;55.87;52.77;;;;;;;;;;5074668;28;20509;-67
2021/08/02 07:04:23;;;;;;;51.33;48.33;;;;;;;;;;5078918;28;20450;-67
2021/08/02 07:06:50;;;;;;;49.67;46.63;;;;;;;;;;5074304;28;20449;-67
2021/08/02 07:09:17;;;;;;;49.43;46.73;;;;;;;;;;5073750;28;20835;-67
2021/08/02 07:11:44;;;;;;;46.67;43.90;;;;;;;;;;5069440;28;20480;-69
2021/08/02 07:14:12;;;;;;;44.17;41.67;;;;;;;;;;5067288;28;20451;-68
2021/08/02 07:16:39;;;;;;;44.70;41.80;;;;;;;;;;5073569;28;20482;-68
2021/08/02 07:19:06;;;;;;;41.57;39.30;;;;;;;;;;5059100;28;20470;-68
2021/08/02 07:21:35;;;;;;;40.30;37.80;;;;;;;;;;5073682;28;20826;-68
2021/08/02 07:24:02;;;;;;;40.60;38.27;;;;;;;;;;5063633;28;20465;-67
2021/08/02 07:26:29;;;;;;;44.30;41.70;;;;;;;;;;5088008;28;20981;-69
2021/08/02 07:28:58;;;;;;;40.10;37.40;;;;;;;;;;5094435;28;20941;-68
2021/08/02 07:31:25;;;;;;;42.23;39.27;;;;;;;;;;5078813;28;20437;-69
2021/08/02 07:33:52;;;;;;;37.50;35.10;;;;;;;;;;5076603;28;20448;-68
2021/08/02 07:36:19;;;;;;;41.60;39.10;;;;;;;;;;5089634;28;20489;-69
2021/08/02 07:38:48;;;;;;;37.67;35.37;;;;;;;;;;5093229;28;20937;-69
2021/08/02 07:41:15;;;;;;;39.40;37.03;;;;;;;;;;5081529;28;20486;-69
2021/08/02 07:43:44;;;;;;;37.00;34.80;;;;;;;;;;5073829;28;20493;-69
2021/08/02 07:46:12;;;;;;;39.70;37.30;;;;;;;;;;5073916;28;20443;-69
2021/08/02 07:48:39;;;;;;;36.53;34.40;;;;;;;;;;5072799;28;20450;-68
2021/08/02 07:51:06;;;;;;;43.57;40.67;;;;;;;;;;5073226;28;20439;-67
2021/08/02 07:53:33;;;;;;;47.97;45.07;;;;;;;;;;5066083;28;20466;-66
2021/08/02 07:56:02;;;;;;;57.00;53.80;;;;;;;;;;5070392;28;20491;-67
2021/08/02 07:58:29;;;;;;;50.00;46.70;;;;;;;;;;5088671;28;20447;-66
2021/08/02 08:00:56;;;;;;;56.73;52.87;;;;;;;;;;5070378;28;20439;-64
2021/08/02 08:03:24;;;;;;;48.57;45.70;;;;;;;;;;5068240;28;20525;-65
2021/08/02 08:05:51;;;;;;;50.33;46.90;;;;;;;;;;5067636;28;20467;-65
2021/08/02 08:08:20;;;;;;;48.07;45.10;;;;;;;;;;5069915;28;20450;-65
2021/08/02 08:10:48;;;;;;;48.23;45.50;;;;;;;;;;5073046;28;20477;-65
2021/08/02 08:13:16;;;;;;;53.77;50.67;;;;;;;;;;5089501;28;20469;-65
2021/08/02 08:15:43;;;;;;;48.60;45.70;;;;;;;;;;5095266;28;20480;-65
2021/08/02 08:18:10;;;;;;;43.17;40.57;;;;;;;;;;5107464;28;20454;-65
2021/08/02 08:20:38;;;;;;;53.43;50.53;;;;;;;;;;5090790;28;20512;-65
2021/08/02 08:23:05;;;;;;;59.90;55.00;;;;;;;;;;5086660;28;20481;-67
2021/08/02 08:25:32;;;;;;;46.70;43.90;;;;;;;;;;5085571;28;20804;-70
2021/08/02 08:27:59;;;;;;;46.00;43.10;;;;;;;;;;5073536;28;20514;-71
2021/08/02 08:30:28;;;;;;;45.93;42.90;;;;;;;;;;5052645;28;20452;-70
2021/08/02 08:32:56;;;;;;;46.67;43.90;;;;;;;;;;5056593;28;20828;-70
2021/08/02 08:35:23;;;;;;;41.80;39.30;;;;;;;;;;5072862;28;21031;-70
2021/08/02 08:37:50;;;;;;;40.40;38.20;;;;;;;;;;5062607;28;21034;-70
2021/08/02 08:40:17;;;;;;;38.63;36.33;;;;;;;;;;5069679;28;20457;-70
2021/08/02 08:42:46;;;;;;;37.47;35.27;;;;;;;;;;5075528;28;20471;-70
2021/08/02 08:45:14;;;;;;;33.77;31.70;;;;;;;;;;5072674;28;20446;-70
2021/08/02 08:47:43;;;;;;;33.80;31.60;;;;;;;;;;5070077;28;20951;-70
2021/08/02 08:50:11;;;;;;;32.17;30.17;;;;;;;;;;5052361;28;20845;-70
2021/08/02 08:52:39;;;;;;;31.50;29.60;;;;;;;;;;5070917;28;20473;-72
2021/08/02 08:55:07;;;;;;;29.67;27.97;;;;;;;;;;5072548;28;20822;-72
2021/08/02 08:57:34;;;;;;;29.43;27.73;;;;;;;;;;5086968;28;20450;-72
2021/08/02 09:00:01;;;;;;;32.87;30.87;;;;;;;;;;5092499;28;20456;-72
2021/08/02 09:02:29;;;;;;;34.13;32.03;;;;;;;;;;5076017;28;20474;-72
2021/08/02 09:04:58;;;;;;;30.63;28.83;;;;;;;;;;5078124;28;20453;-72
2021/08/02 09:07:35;;;;;;;32.83;31.03;;;;;;;;;;5079862;28;20821;-72
2021/08/02 09:10:04;;;;;;;29.43;27.73;;;;;;;;;;5076074;28;20958;-72
2021/08/02 09:12:32;;;;;;;30.90;29.23;;;;;;;;;;5074924;28;20561;-72
2021/08/02 09:15:00;;;;;;;28.63;26.80;;;;;;;;;;5074668;28;20546;-73
2021/08/02 09:17:32;;;;;;;26.50;25.10;;;;;;;;;;5074192;28;20493;-72
2021/08/02 09:20:01;;;;;;;26.93;25.43;;;;;;;;;;5079540;28;20447;-72
2021/08/02 09:22:32;;;;;;;26.53;24.90;;;;;;;;;;5072966;28;21024;-72
2021/08/02 09:25:06;;;;;;;24.43;23.00;;;;;;;;;;5084006;28;20457;-72
2021/08/02 09:27:34;;;;;;;24.67;23.37;;;;;;;;;;5075643;28;20845;-70
2021/08/02 09:30:12;;;;;;;24.47;22.80;;;;;;;;;;5075324;28;20458;-72
2021/08/02 09:32:45;;;;;;;23.67;22.37;;;;;;;;;;5074743;28;21018;-71
2021/08/02 09:35:14;;;;;;;25.20;23.80;;;;;;;;;;5074933;28;20447;-71
2021/08/02 09:37:41;;;;;;;23.77;22.47;;;;;;;;;;5075427;28;20482;-71
2021/08/02 09:40:09;;;;;;;25.23;23.90;;;;;;;;;;5075759;28;20457;-72
2021/08/02 09:42:36;;;;;;;25.10;23.80;;;;;;;;;;5075774;28;20470;-71
2021/08/02 09:45:05;;;;;;;22.10;20.90;;;;;;;;;;5074776;28;20951;-70
2021/08/02 09:47:32;;;;;;;25.60;24.20;;;;;;;;;;5075113;28;20443;-72
2021/08/02 09:49:59;;;;;;;25.03;23.60;;;;;;;;;;5075251;28;20529;-72
2021/08/02 09:52:28;;;;;;;21.47;20.37;;;;;;;;;;5074873;28;20501;-72
2021/08/02 09:55:01;;;;;;;21.57;20.27;;;;;;;;;;5075392;28;20454;-72
2021/08/02 09:57:29;;;;;;;21.10;20.10;;;;;;;;;;5073682;28;20474;-72
2021/08/02 09:59:57;;;;;;;23.90;22.50;;;;;;;;;;5075172;28;20459;-71
2021/08/02 10:02:24;;;;;;;23.20;21.90;;;;;;;;;;5074444;28;20647;-71
2021/08/02 10:04:51;;;;;;;23.30;22.03;;;;;;;;;;5074601;28;20960;-71
2021/08/02 10:07:19;;;;;;;23.93;22.43;;;;;;;;;;5074561;28;20447;-72
2021/08/02 10:09:48;;;;;;;22.13;20.93;;;;;;;;;;5074894;28;20451;-72
2021/08/02 10:12:15;;;;;;;23.00;21.70;;;;;;;;;;5074843;28;20470;-73
2021/08/02 10:14:43;;;;;;;22.80;21.60;;;;;;;;;;5074809;28;20447;-72
2021/08/02 10:17:11;;;;;;;22.90;21.60;;;;;;;;;;5068943;28;20475;-72
2021/08/02 10:19:38;;;;;;;23.20;21.80;;;;;;;;;;5075029;28;20461;-72
2021/08/02 10:22:06;;;;;;;22.67;21.57;;;;;;;;;;5074510;28;20978;-72
2021/08/02 10:24:33;;;;;;;21.93;20.73;;;;;;;;;;5074725;28;20447;-72
2021/08/02 10:27:02;;;;;;;21.63;20.53;;;;;;;;;;5065079;28;20463;-72
2021/08/02 10:29:38;;;;;;;21.03;19.93;;;;;;;;;;5054383;28;20478;-72
2021/08/02 10:32:05;;;;;;;20.77;19.67;;;;;;;;;;5065275;28;20530;-72
2021/08/02 10:34:32;;;;;;;21.80;20.60;;;;;;;;;;5074893;28;20937;-72
2021/08/02 10:37:00;;;;;;;22.77;21.37;;;;;;;;;;5065262;28;20480;-71
2021/08/02 10:39:29;;;;;;;21.53;20.33;;;;;;;;;;5055420;28;21069;-71
2021/08/02 10:42:06;;;;;;;21.87;20.67;;;;;;;;;;5058908;28;21033;-71
2021/08/02 10:44:33;;;;;;;23.40;22.10;;;;;;;;;;5074878;28;20457;-72
2021/08/02 10:47:02;;;;;;;23.00;21.80;;;;;;;;;;5072691;28;20443;-71
2021/08/02 10:49:29;;;;;;;23.33;22.10;;;;;;;;;;5074318;28;20443;-71
2021/08/02 10:51:56;;;;;;;22.83;21.63;;;;;;;;;;5073548;28;20467;-72
2021/08/02 10:54:24;;;;;;;23.57;22.17;;;;;;;;;;5073567;28;20442;-72
2021/08/02 10:56:52;;;;;;;22.90;21.70;;;;;;;;;;5073645;28;20486;-71
2021/08/02 10:59:21;;;;;;;20.80;19.80;;;;;;;;;;5068415;28;20503;-72
2021/08/02 11:01:48;;;;;;;22.90;21.80;;;;;;;;;;5071405;28;20466;-71
2021/08/02 11:04:17;;;;;;;22.73;21.53;;;;;;;;;;5073972;28;20803;-73
2021/08/02 11:06:45;;;;;;;22.43;21.33;;;;;;;;;;5076683;28;20451;-72
2021/08/02 11:09:13;;;;;;;23.67;22.50;;;;;;;;;;5056862;28;20459;-72
2021/08/02 11:11:40;;;;;;;22.80;21.70;;;;;;;;;;5067232;28;20454;-72
2021/08/02 11:14:07;;;;;;;23.83;22.43;;;;;;;;;;5074670;28;20961;-72
2021/08/02 11:16:41;;;;;;;24.23;22.80;;;;;;;;;;5073650;28;20496;-72
2021/08/02 11:19:15;;;;;;;24.30;23.10;;;;;;;;;;5075839;28;20450;-72
2021/08/02 11:21:42;;;;;;;21.57;20.37;;;;;;;;;;5072703;28;20940;-72
2021/08/02 11:24:10;;;;;;;24.10;22.90;;;;;;;;;;5074327;28;20459;-72
2021/08/02 11:26:46;;;;;;;22.70;21.50;;;;;;;;;;5083750;28;20456;-71
2021/08/02 11:29:18;;;;;;;21.63;20.47;;;;;;;;;;5092962;28;20822;-72
2021/08/02 11:31:54;;;;;;;21.50;20.37;;;;;;;;;;5063013;28;20466;-72
2021/08/02 11:34:22;;;;;;;22.50;20.97;;;;;;;;;;5073041;28;20930;-72
2021/08/02 11:36:57;;;;;;;22.20;21.07;;;;;;;;;;5074436;28;21022;-72
2021/08/02 11:39:25;;;;;;;24.10;22.70;;;;;;;;;;5073174;28;20453;-71
2021/08/02 11:42:00;;;;;;;26.20;24.80;;;;;;;;;;5063173;28;20884;-72
2021/08/02 11:44:28;;;;;;;24.70;23.40;;;;;;;;;;5053000;28;20461;-73
2021/08/02 11:46:57;;;;;;;23.83;22.63;;;;;;;;;;5054289;28;20961;-70
2021/08/02 11:49:24;;;;;;;26.03;24.20;;;;;;;;;;5062232;28;20447;-74
2021/08/02 11:51:51;;;;;;;25.13;23.50;;;;;;;;;;5054428;28;20875;-73
2021/08/02 11:54:19;;;;;;;26.50;24.63;;;;;;;;;;5052502;28;20448;-74
2021/08/02 11:56:46;;;;;;;25.10;23.70;;;;;;;;;;5069494;28;20483;-73
2021/08/02 11:59:20;;;;;;;24.83;23.33;;;;;;;;;;5065376;28;20448;-73
2021/08/02 12:01:47;;;;;;;22.83;21.53;;;;;;;;;;5059942;28;20525;-74
2021/08/02 12:04:16;;;;;;;23.03;21.80;;;;;;;;;;5073066;28;20461;-73
2021/08/02 12:06:53;;;;;;;22.07;20.97;;;;;;;;;;5073046;28;20443;-74
2021/08/02 12:09:33;;;;;;;23.50;22.20;;;;;;;;;;5089672;28;20453;-74
2021/08/02 12:12:01;;;;;;;23.77;22.30;;;;;;;;;;5093279;28;20462;-73
2021/08/02 12:14:30;;;;;;;22.33;20.90;;;;;;;;;;5082117;28;20550;-73
2021/08/02 12:17:07;;;;;;;22.30;21.10;;;;;;;;;;5081756;28;20477;-74
2021/08/02 12:19:45;;;;;;;21.50;20.40;;;;;;;;;;5077287;28;20463;-74
2021/08/02 12:22:12;;;;;;;20.30;19.20;;;;;;;;;;5071333;28;21000;-73
2021/08/02 12:24:50;;;;;;;23.83;22.43;;;;;;;;;;5058402;28;20819;-73
2021/08/02 12:27:17;;;;;;;24.90;23.50;;;;;;;;;;5062564;28;20784;-73
2021/08/02 12:29:45;;;;;;;21.57;20.47;;;;;;;;;;5072204;28;20793;-73
2021/08/02 12:32:12;;;;;;;20.57;19.50;;;;;;;;;;5083393;28;20472;-73
2021/08/02 12:34:39;;;;;;;21.50;20.30;;;;;;;;;;5092742;28;20787;-73
2021/08/02 12:37:08;;;;;;;21.10;19.90;;;;;;;;;;5095169;28;20605;-73
2021/08/02 12:39:35;;;;;;;20.80;19.80;;;;;;;;;;5097246;28;20545;-73
2021/08/02 12:42:02;;;;;;;21.00;19.70;;;;;;;;;;5088536;28;20864;-73
2021/08/02 12:44:30;;;;;;;21.20;20.00;;;;;;;;;;5077350;28;20451;-73
2021/08/02 12:46:57;;;;;;;21.80;20.60;;;;;;;;;;5096930;28;20948;-73
2021/08/02 12:49:24;;;;;;;20.33;19.33;;;;;;;;;;5097225;28;20469;-73
2021/08/02 12:51:51;;;;;;;20.97;19.87;;;;;;;;;;5099616;28;20461;-74
2021/08/02 12:54:20;;;;;;;21.03;19.83;;;;;;;;;;5099849;28;20454;-73
2021/08/02 12:56:47;;;;;;;21.23;20.00;;;;;;;;;;5098493;28;20481;-73
2021/08/02 12:59:14;;;;;;;21.13;20.03;;;;;;;;;;5087692;28;20443;-73
2021/08/02 13:01:41;;;;;;;20.17;19.17;;;;;;;;;;5080523;28;20861;-73
2021/08/02 13:04:08;;;;;;;20.40;19.30;;;;;;;;;;5077671;28;20461;-73
2021/08/02 13:06:36;;;;;;;20.93;19.83;;;;;;;;;;5076667;28;20458;-73
2021/08/02 13:09:03;;;;;;;20.73;19.67;;;;;;;;;;5076445;28;20450;-73
2021/08/02 13:11:31;;;;;;;24.13;22.80;;;;;;;;;;5075136;28;20455;-73
2021/08/02 13:13:58;;;;;;;23.00;21.80;;;;;;;;;;5075649;28;20439;-73
2021/08/02 13:16:25;;;;;;;22.90;21.70;;;;;;;;;;5073412;28;21662;-73
2021/08/02 13:18:54;;;;;;;23.73;22.43;;;;;;;;;;5073500;28;20968;-73
2021/08/02 13:21:21;;;;;;;23.70;22.33;;;;;;;;;;5074749;28;20490;-73
2021/08/02 13:29:20;;;;;;;23.53;22.33;;;;;;;;;;5092716;22;20464;-64
2021/08/02 13:31:48;;;;;;;23.53;22.23;;;;;;;;;;5025779;28;20472;-66
2021/08/02 13:34:16;;;;;;;24.20;22.90;;;;;;;;;;5031106;28;20878;-63
2021/08/02 13:36:43;;;;;;;24.50;23.27;;;;;;;;;;5034293;28;20815;-64
2021/08/02 13:39:10;;;;;;;23.90;22.70;;;;;;;;;;5034414;28;20467;-62
2021/08/02 13:41:39;;;;;;;23.30;22.00;;;;;;;;;;5034066;28;20453;-62
2021/08/02 13:44:06;;;;;;;24.13;22.93;;;;;;;;;;5032219;28;20460;-63
2021/08/02 13:46:34;;;;;;;21.90;20.80;;;;;;;;;;5032616;28;20453;-66
2021/08/02 13:49:01;;;;;;;23.20;22.10;;;;;;;;;;5028884;28;20972;-62
2021/08/02 13:51:28;;;;;;;24.10;22.80;;;;;;;;;;5029649;28;20463;-62
2021/08/02 13:53:55;;;;;;;24.10;22.90;;;;;;;;;;5034177;28;20449;-63
2021/08/02 13:56:23;;;;;;;23.50;22.10;;;;;;;;;;5033643;28;20453;-63
2021/08/02 13:58:51;;;;;;;23.50;22.30;;;;;;;;;;5034238;28;20480;-63
2021/08/02 14:01:19;;;;;;;22.27;21.17;;;;;;;;;;5033504;28;20483;-62
2021/08/02 14:03:46;;;;;;;21.13;20.13;;;;;;;;;;5033996;28;20450;-63
2021/08/02 14:06:13;;;;;;;21.90;20.80;;;;;;;;;;5033701;28;20565;-62
2021/08/02 14:08:40;;;;;;;23.07;21.83;;;;;;;;;;5033708;28;20451;-63
2021/08/02 14:11:14;;;;;;;24.50;23.20;;;;;;;;;;5033696;28;20476;-62
2021/08/02 14:13:43;;;;;;;23.17;22.00;;;;;;;;;;5034097;28;20429;-62
2021/08/02 14:16:15;;;;;;;23.90;22.80;;;;;;;;;;5033766;28;20444;-63
2021/08/02 14:18:49;;;;;;;23.93;22.83;;;;;;;;;;5033220;28;21077;-63
2021/08/02 14:21:17;;;;;;;23.50;22.30;;;;;;;;;;5033507;28;20469;-64
2021/08/02 14:23:44;;;;;;;23.70;22.47;;;;;;;;;;5033703;28;20455;-66